sensor_id;sensor_type;location;lat;lon;timestamp;temperature;humidity
11836;DHT22;5977;51.972;7.640;2023-02-08T00:01:10;15.60;73.50
11836;DHT22;5977;51.972;7.640;2023-02-08T00:03:38;15.60;73.40
11836;DHT22;5977;51.972;7.640;2023-02-08T00:06:07;15.70;73.60
11836;DHT22;5977;51.972;7.640;2023-02-08T00:08:36;15.60;73.60
11836;DHT22;5977;51.972;7.640;2023-02-08T00:11:05;15.60;73.40
11836;DHT22;5977;51.972;7.640;2023-02-08T00:13:33;15.60;73.40
11836;DHT22;5977;51.972;7.640;2023-02-08T00:16:01;15.60;73.50
11836;DHT22;5977;51.972;7.640;2023-02-08T00:18:31;15.60;73.50
11836;DHT22;5977;51.972;7.640;2023-02-08T00:20:59;15.60;73.50
11836;DHT22;5977;51.972;7.640;2023-02-08T00:23:26;15.60;73.50
11836;DHT22;5977;51.972;7.640;2023-02-08T00:25:54;15.60;73.40
11836;DHT22;5977;51.972;7.640;2023-02-08T00:28:22;15.60;73.40
11836;DHT22;5977;51.972;7.640;2023-02-08T00:30:50;15.60;73.30
11836;DHT22;5977;51.972;7.640;2023-02-08T00:33:18;15.60;73.30
11836;DHT22;5977;51.972;7.640;2023-02-08T00:35:48;15.60;73.30
11836;DHT22;5977;51.972;7.640;2023-02-08T00:38:18;15.60;73.40
11836;DHT22;5977;51.972;7.640;2023-02-08T00:40:46;15.60;73.30
11836;DHT22;5977;51.972;7.640;2023-02-08T00:43:13;15.60;73.30
11836;DHT22;5977;51.972;7.640;2023-02-08T00:45:41;15.60;73.20
11836;DHT22;5977;51.972;7.640;2023-02-08T00:48:09;15.60;73.40
11836;DHT22;5977;51.972;7.640;2023-02-08T00:50:37;15.60;73.20
11836;DHT22;5977;51.972;7.640;2023-02-08T00:53:06;15.60;73.30
11836;DHT22;5977;51.972;7.640;2023-02-08T00:55:34;15.60;73.10
11836;DHT22;5977;51.972;7.640;2023-02-08T00:58:03;15.60;73.10
11836;DHT22;5977;51.972;7.640;2023-02-08T01:00:31;15.60;73.10
11836;DHT22;5977;51.972;7.640;2023-02-08T01:02:58;15.50;73.10
11836;DHT22;5977;51.972;7.640;2023-02-08T01:05:26;15.60;73.20
11836;DHT22;5977;51.972;7.640;2023-02-08T01:07:54;15.60;73.20
11836;DHT22;5977;51.972;7.640;2023-02-08T01:10:23;15.60;73.10
11836;DHT22;5977;51.972;7.640;2023-02-08T01:12:51;15.50;72.90
11836;DHT22;5977;51.972;7.640;2023-02-08T01:15:21;15.60;73.00
11836;DHT22;5977;51.972;7.640;2023-02-08T01:17:52;15.50;72.90
11836;DHT22;5977;51.972;7.640;2023-02-08T01:20:20;15.50;72.80
11836;DHT22;5977;51.972;7.640;2023-02-08T01:22:48;15.50;72.80
11836;DHT22;5977;51.972;7.640;2023-02-08T01:25:16;15.50;72.80
11836;DHT22;5977;51.972;7.640;2023-02-08T01:27:46;15.50;72.70
11836;DHT22;5977;51.972;7.640;2023-02-08T01:30:14;15.50;72.50
11836;DHT22;5977;51.972;7.640;2023-02-08T01:32:43;15.50;72.50
11836;DHT22;5977;51.972;7.640;2023-02-08T01:35:10;15.50;72.60
11836;DHT22;5977;51.972;7.640;2023-02-08T01:37:38;15.50;72.50
11836;DHT22;5977;51.972;7.640;2023-02-08T01:40:09;15.50;72.30
11836;DHT22;5977;51.972;7.640;2023-02-08T01:42:37;15.50;72.20
11836;DHT22;5977;51.972;7.640;2023-02-08T01:45:27;15.50;72.40
11836;DHT22;5977;51.972;7.640;2023-02-08T01:48:01;15.50;72.00
11836;DHT22;5977;51.972;7.640;2023-02-08T01:50:35;15.50;72.10
11836;DHT22;5977;51.972;7.640;2023-02-08T01:53:06;15.50;72.00
11836;DHT22;5977;51.972;7.640;2023-02-08T01:55:37;15.50;72.20
11836;DHT22;5977;51.972;7.640;2023-02-08T01:58:09;15.50;72.00
11836;DHT22;5977;51.972;7.640;2023-02-08T02:00:40;15.50;71.90
11836;DHT22;5977;51.972;7.640;2023-02-08T02:03:12;15.50;71.90
11836;DHT22;5977;51.972;7.640;2023-02-08T02:05:42;15.50;72.20
11836;DHT22;5977;51.972;7.640;2023-02-08T02:08:10;15.50;72.80
11836;DHT22;5977;51.972;7.640;2023-02-08T02:10:40;15.60;72.20
11836;DHT22;5977;51.972;7.640;2023-02-08T02:13:11;15.50;71.80
11836;DHT22;5977;51.972;7.640;2023-02-08T02:15:44;15.50;71.90
11836;DHT22;5977;51.972;7.640;2023-02-08T02:18:16;15.50;72.00
11836;DHT22;5977;51.972;7.640;2023-02-08T02:20:56;15.50;71.90
11836;DHT22;5977;51.972;7.640;2023-02-08T02:27:08;15.50;71.70
11836;DHT22;5977;51.972;7.640;2023-02-08T02:30:13;15.50;71.50
11836;DHT22;5977;51.972;7.640;2023-02-08T02:32:58;15.50;71.50
11836;DHT22;5977;51.972;7.640;2023-02-08T02:35:37;15.50;71.60
11836;DHT22;5977;51.972;7.640;2023-02-08T02:38:13;15.50;71.60
11836;DHT22;5977;51.972;7.640;2023-02-08T02:40:52;15.50;71.80
11836;DHT22;5977;51.972;7.640;2023-02-08T02:43:31;15.50;71.80
11836;DHT22;5977;51.972;7.640;2023-02-08T02:46:20;15.50;71.80
11836;DHT22;5977;51.972;7.640;2023-02-08T02:48:55;15.50;71.70
11836;DHT22;5977;51.972;7.640;2023-02-08T02:51:28;15.50;71.80
11836;DHT22;5977;51.972;7.640;2023-02-08T02:54:03;15.50;71.80
11836;DHT22;5977;51.972;7.640;2023-02-08T02:56:36;15.50;71.80
11836;DHT22;5977;51.972;7.640;2023-02-08T02:59:07;15.40;71.80
11836;DHT22;5977;51.972;7.640;2023-02-08T03:01:35;15.50;71.90
11836;DHT22;5977;51.972;7.640;2023-02-08T03:04:13;15.40;71.90
11836;DHT22;5977;51.972;7.640;2023-02-08T03:06:50;15.50;71.60
11836;DHT22;5977;51.972;7.640;2023-02-08T03:09:42;15.40;71.60
11836;DHT22;5977;51.972;7.640;2023-02-08T03:12:28;15.50;71.60
11836;DHT22;5977;51.972;7.640;2023-02-08T03:15:04;15.50;71.50
11836;DHT22;5977;51.972;7.640;2023-02-08T03:17:44;15.50;71.60
11836;DHT22;5977;51.972;7.640;2023-02-08T03:20:21;15.40;71.60
11836;DHT22;5977;51.972;7.640;2023-02-08T03:22:56;15.50;71.60
11836;DHT22;5977;51.972;7.640;2023-02-08T03:25:33;15.50;71.50
11836;DHT22;5977;51.972;7.640;2023-02-08T03:28:06;15.40;71.70
11836;DHT22;5977;51.972;7.640;2023-02-08T03:30:41;15.50;71.80
11836;DHT22;5977;51.972;7.640;2023-02-08T03:33:21;15.40;71.60
11836;DHT22;5977;51.972;7.640;2023-02-08T03:35:56;15.40;71.70
11836;DHT22;5977;51.972;7.640;2023-02-08T03:38:28;15.50;71.50
11836;DHT22;5977;51.972;7.640;2023-02-08T03:40:58;15.50;71.70
11836;DHT22;5977;51.972;7.640;2023-02-08T03:43:30;15.50;71.60
11836;DHT22;5977;51.972;7.640;2023-02-08T03:46:04;15.40;71.60
11836;DHT22;5977;51.972;7.640;2023-02-08T03:48:34;15.40;71.40
11836;DHT22;5977;51.972;7.640;2023-02-08T03:51:05;15.50;71.50
11836;DHT22;5977;51.972;7.640;2023-02-08T03:53:36;15.40;71.50
11836;DHT22;5977;51.972;7.640;2023-02-08T03:56:09;15.40;71.60
11836;DHT22;5977;51.972;7.640;2023-02-08T03:58:42;15.40;71.60
11836;DHT22;5977;51.972;7.640;2023-02-08T04:01:14;15.50;71.60
11836;DHT22;5977;51.972;7.640;2023-02-08T04:03:44;15.40;71.50
11836;DHT22;5977;51.972;7.640;2023-02-08T04:06:15;15.40;71.50
11836;DHT22;5977;51.972;7.640;2023-02-08T04:08:44;15.40;71.30
11836;DHT22;5977;51.972;7.640;2023-02-08T04:11:12;15.40;71.30
11836;DHT22;5977;51.972;7.640;2023-02-08T04:13:40;15.50;71.30
11836;DHT22;5977;51.972;7.640;2023-02-08T04:16:08;15.40;71.10
11836;DHT22;5977;51.972;7.640;2023-02-08T04:18:36;15.50;71.00
11836;DHT22;5977;51.972;7.640;2023-02-08T04:21:05;15.50;71.10
11836;DHT22;5977;51.972;7.640;2023-02-08T04:23:34;15.40;71.10
11836;DHT22;5977;51.972;7.640;2023-02-08T04:26:02;15.40;71.10
11836;DHT22;5977;51.972;7.640;2023-02-08T04:28:30;15.40;70.90
11836;DHT22;5977;51.972;7.640;2023-02-08T04:30:58;15.40;70.60
11836;DHT22;5977;51.972;7.640;2023-02-08T04:33:26;15.50;70.60
11836;DHT22;5977;51.972;7.640;2023-02-08T04:35:54;15.40;70.50
11836;DHT22;5977;51.972;7.640;2023-02-08T04:38:21;15.50;70.40
11836;DHT22;5977;51.972;7.640;2023-02-08T04:40:50;15.50;70.00
11836;DHT22;5977;51.972;7.640;2023-02-08T04:43:18;15.40;69.60
11836;DHT22;5977;51.972;7.640;2023-02-08T04:45:48;15.40;69.60
11836;DHT22;5977;51.972;7.640;2023-02-08T04:48:16;15.40;69.20
11836;DHT22;5977;51.972;7.640;2023-02-08T04:50:44;15.40;69.10
11836;DHT22;5977;51.972;7.640;2023-02-08T04:53:12;15.40;68.80
11836;DHT22;5977;51.972;7.640;2023-02-08T04:55:40;15.40;68.50
11836;DHT22;5977;51.972;7.640;2023-02-08T04:58:09;15.40;68.40
11836;DHT22;5977;51.972;7.640;2023-02-08T05:00:37;15.40;68.00
11836;DHT22;5977;51.972;7.640;2023-02-08T05:03:06;15.40;67.90
11836;DHT22;5977;51.972;7.640;2023-02-08T05:05:33;15.40;67.70
11836;DHT22;5977;51.972;7.640;2023-02-08T05:08:02;15.40;67.50
11836;DHT22;5977;51.972;7.640;2023-02-08T05:10:29;15.40;67.40
11836;DHT22;5977;51.972;7.640;2023-02-08T05:12:57;15.40;67.20
11836;DHT22;5977;51.972;7.640;2023-02-08T05:15:27;15.40;67.20
11836;DHT22;5977;51.972;7.640;2023-02-08T05:17:54;15.40;66.80
11836;DHT22;5977;51.972;7.640;2023-02-08T05:20:22;15.40;66.80
11836;DHT22;5977;51.972;7.640;2023-02-08T05:22:50;15.40;66.60
11836;DHT22;5977;51.972;7.640;2023-02-08T05:25:18;15.40;66.50
11836;DHT22;5977;51.972;7.640;2023-02-08T05:27:46;15.40;66.40
11836;DHT22;5977;51.972;7.640;2023-02-08T05:30:14;15.40;66.70
11836;DHT22;5977;51.972;7.640;2023-02-08T05:32:43;15.40;66.20
11836;DHT22;5977;51.972;7.640;2023-02-08T05:35:11;15.40;65.70
11836;DHT22;5977;51.972;7.640;2023-02-08T05:37:39;15.40;65.70
11836;DHT22;5977;51.972;7.640;2023-02-08T05:40:08;15.40;65.50
11836;DHT22;5977;51.972;7.640;2023-02-08T05:42:38;15.40;65.20
11836;DHT22;5977;51.972;7.640;2023-02-08T05:45:08;15.30;65.00
11836;DHT22;5977;51.972;7.640;2023-02-08T05:47:36;15.30;64.70
11836;DHT22;5977;51.972;7.640;2023-02-08T05:50:05;15.30;64.50
11836;DHT22;5977;51.972;7.640;2023-02-08T05:52:33;15.40;64.30
11836;DHT22;5977;51.972;7.640;2023-02-08T05:55:01;15.40;64.10
11836;DHT22;5977;51.972;7.640;2023-02-08T05:57:29;15.30;63.80
11836;DHT22;5977;51.972;7.640;2023-02-08T06:00:01;15.30;63.70
11836;DHT22;5977;51.972;7.640;2023-02-08T06:02:30;15.40;63.40
11836;DHT22;5977;51.972;7.640;2023-02-08T06:04:59;15.40;63.30
11836;DHT22;5977;51.972;7.640;2023-02-08T06:07:29;15.40;63.40
11836;DHT22;5977;51.972;7.640;2023-02-08T06:09:56;15.40;63.30
11836;DHT22;5977;51.972;7.640;2023-02-08T06:12:24;15.40;63.50
11836;DHT22;5977;51.972;7.640;2023-02-08T06:14:52;15.40;63.50
11836;DHT22;5977;51.972;7.640;2023-02-08T06:17:20;15.40;63.60
11836;DHT22;5977;51.972;7.640;2023-02-08T06:19:48;15.40;63.50
11836;DHT22;5977;51.972;7.640;2023-02-08T06:22:16;15.40;63.40
11836;DHT22;5977;51.972;7.640;2023-02-08T06:24:45;15.30;63.30
11836;DHT22;5977;51.972;7.640;2023-02-08T06:27:14;15.40;63.20
11836;DHT22;5977;51.972;7.640;2023-02-08T06:29:42;15.40;63.20
11836;DHT22;5977;51.972;7.640;2023-02-08T06:32:10;15.40;63.10
11836;DHT22;5977;51.972;7.640;2023-02-08T06:34:38;15.40;63.10
11836;DHT22;5977;51.972;7.640;2023-02-08T06:37:05;15.40;63.10
11836;DHT22;5977;51.972;7.640;2023-02-08T06:39:33;15.40;62.90
11836;DHT22;5977;51.972;7.640;2023-02-08T06:42:02;15.30;62.90
11836;DHT22;5977;51.972;7.640;2023-02-08T06:44:30;15.40;62.70
11836;DHT22;5977;51.972;7.640;2023-02-08T06:46:58;15.40;62.70
11836;DHT22;5977;51.972;7.640;2023-02-08T06:49:26;15.30;62.50
11836;DHT22;5977;51.972;7.640;2023-02-08T06:51:54;15.30;62.60
11836;DHT22;5977;51.972;7.640;2023-02-08T06:54:22;15.40;62.50
11836;DHT22;5977;51.972;7.640;2023-02-08T06:56:49;15.40;62.50
11836;DHT22;5977;51.972;7.640;2023-02-08T06:59:21;15.40;62.30
11836;DHT22;5977;51.972;7.640;2023-02-08T07:01:49;15.30;62.20
11836;DHT22;5977;51.972;7.640;2023-02-08T07:04:17;15.30;62.20
11836;DHT22;5977;51.972;7.640;2023-02-08T07:06:47;15.40;62.20
11836;DHT22;5977;51.972;7.640;2023-02-08T07:09:15;15.40;61.90
11836;DHT22;5977;51.972;7.640;2023-02-08T07:11:43;15.40;62.00
11836;DHT22;5977;51.972;7.640;2023-02-08T07:14:11;15.40;62.00
11836;DHT22;5977;51.972;7.640;2023-02-08T07:16:41;15.40;61.90
11836;DHT22;5977;51.972;7.640;2023-02-08T07:19:09;15.40;61.90
11836;DHT22;5977;51.972;7.640;2023-02-08T07:21:36;15.40;61.80
11836;DHT22;5977;51.972;7.640;2023-02-08T07:24:04;15.30;61.70
11836;DHT22;5977;51.972;7.640;2023-02-08T07:26:32;15.30;61.70
11836;DHT22;5977;51.972;7.640;2023-02-08T07:29:00;15.40;61.70
11836;DHT22;5977;51.972;7.640;2023-02-08T07:31:28;15.30;61.60
11836;DHT22;5977;51.972;7.640;2023-02-08T07:33:59;15.30;61.50
11836;DHT22;5977;51.972;7.640;2023-02-08T07:36:26;15.30;61.30
11836;DHT22;5977;51.972;7.640;2023-02-08T07:38:54;15.30;61.40
11836;DHT22;5977;51.972;7.640;2023-02-08T07:41:22;15.30;61.30
11836;DHT22;5977;51.972;7.640;2023-02-08T07:43:50;15.30;61.30
11836;DHT22;5977;51.972;7.640;2023-02-08T07:46:20;15.20;61.20
11836;DHT22;5977;51.972;7.640;2023-02-08T07:48:48;15.30;60.90
11836;DHT22;5977;51.972;7.640;2023-02-08T07:51:18;15.30;60.90
11836;DHT22;5977;51.972;7.640;2023-02-08T07:53:45;15.30;61.00
11836;DHT22;5977;51.972;7.640;2023-02-08T07:56:13;15.30;61.40
11836;DHT22;5977;51.972;7.640;2023-02-08T07:58:41;15.30;61.40
11836;DHT22;5977;51.972;7.640;2023-02-08T08:01:09;15.30;61.60
11836;DHT22;5977;51.972;7.640;2023-02-08T08:03:49;15.30;61.80
11836;DHT22;5977;51.972;7.640;2023-02-08T08:06:19;15.30;61.90
11836;DHT22;5977;51.972;7.640;2023-02-08T08:08:47;15.40;62.00
11836;DHT22;5977;51.972;7.640;2023-02-08T08:11:16;15.40;62.20
11836;DHT22;5977;51.972;7.640;2023-02-08T08:13:44;15.30;62.20
11836;DHT22;5977;51.972;7.640;2023-02-08T08:16:13;15.40;62.40
11836;DHT22;5977;51.972;7.640;2023-02-08T08:18:41;15.40;62.40
11836;DHT22;5977;51.972;7.640;2023-02-08T08:21:09;15.40;62.50
11836;DHT22;5977;51.972;7.640;2023-02-08T08:23:38;15.40;62.60
11836;DHT22;5977;51.972;7.640;2023-02-08T08:26:07;15.60;62.50
11836;DHT22;5977;51.972;7.640;2023-02-08T08:28:36;16.10;61.70
11836;DHT22;5977;51.972;7.640;2023-02-08T08:31:09;16.70;60.50
11836;DHT22;5977;51.972;7.640;2023-02-08T08:33:38;17.20;59.40
11836;DHT22;5977;51.972;7.640;2023-02-08T08:36:06;17.30;58.90
11836;DHT22;5977;51.972;7.640;2023-02-08T08:38:35;17.60;58.70
11836;DHT22;5977;51.972;7.640;2023-02-08T08:41:07;17.70;58.20
11836;DHT22;5977;51.972;7.640;2023-02-08T08:43:35;17.50;58.70
11836;DHT22;5977;51.972;7.640;2023-02-08T08:46:04;17.10;59.30
11836;DHT22;5977;51.972;7.640;2023-02-08T08:48:33;16.90;59.70
11836;DHT22;5977;51.972;7.640;2023-02-08T08:51:01;16.90;60.10
11836;DHT22;5977;51.972;7.640;2023-02-08T08:53:29;16.80;60.50
11836;DHT22;5977;51.972;7.640;2023-02-08T08:55:56;16.80;60.60
11836;DHT22;5977;51.972;7.640;2023-02-08T08:58:26;16.80;60.60
11836;DHT22;5977;51.972;7.640;2023-02-08T09:00:55;16.80;60.60
11836;DHT22;5977;51.972;7.640;2023-02-08T09:03:23;16.90;60.60
11836;DHT22;5977;51.972;7.640;2023-02-08T09:05:51;16.90;60.70
11836;DHT22;5977;51.972;7.640;2023-02-08T09:08:19;17.00;60.60
11836;DHT22;5977;51.972;7.640;2023-02-08T09:10:47;17.00;60.50
11836;DHT22;5977;51.972;7.640;2023-02-08T09:13:15;17.00;60.40
11836;DHT22;5977;51.972;7.640;2023-02-08T09:15:47;17.10;60.40
11836;DHT22;5977;51.972;7.640;2023-02-08T09:18:15;17.10;60.20
11836;DHT22;5977;51.972;7.640;2023-02-08T09:20:43;17.00;60.20
11836;DHT22;5977;51.972;7.640;2023-02-08T09:23:12;17.10;60.30
11836;DHT22;5977;51.972;7.640;2023-02-08T09:25:40;17.10;60.30
11836;DHT22;5977;51.972;7.640;2023-02-08T09:28:08;17.10;60.40
11836;DHT22;5977;51.972;7.640;2023-02-08T09:30:36;17.10;60.60
11836;DHT22;5977;51.972;7.640;2023-02-08T09:33:05;17.00;60.60
11836;DHT22;5977;51.972;7.640;2023-02-08T09:35:33;17.00;60.60
11836;DHT22;5977;51.972;7.640;2023-02-08T09:38:01;16.90;60.90
11836;DHT22;5977;51.972;7.640;2023-02-08T09:40:37;16.90;61.10
11836;DHT22;5977;51.972;7.640;2023-02-08T09:43:13;16.90;61.00
11836;DHT22;5977;51.972;7.640;2023-02-08T09:45:49;16.80;61.20
11836;DHT22;5977;51.972;7.640;2023-02-08T09:48:28;16.80;61.40
11836;DHT22;5977;51.972;7.640;2023-02-08T09:51:03;16.80;61.70
11836;DHT22;5977;51.972;7.640;2023-02-08T09:53:35;16.70;61.80
11836;DHT22;5977;51.972;7.640;2023-02-08T09:56:10;16.70;62.20
11836;DHT22;5977;51.972;7.640;2023-02-08T09:58:40;16.70;62.20
11836;DHT22;5977;51.972;7.640;2023-02-08T10:01:14;16.70;62.50
11836;DHT22;5977;51.972;7.640;2023-02-08T10:03:46;16.60;62.60
11836;DHT22;5977;51.972;7.640;2023-02-08T10:06:16;16.60;62.90
11836;DHT22;5977;51.972;7.640;2023-02-08T10:08:47;16.70;63.30
11836;DHT22;5977;51.972;7.640;2023-02-08T10:11:39;16.70;63.30
11836;DHT22;5977;51.972;7.640;2023-02-08T10:14:37;16.90;63.20
11836;DHT22;5977;51.972;7.640;2023-02-08T10:17:20;17.00;62.40
11836;DHT22;5977;51.972;7.640;2023-02-08T10:20:02;17.20;62.10
11836;DHT22;5977;51.972;7.640;2023-02-08T10:22:38;17.30;61.90
11836;DHT22;5977;51.972;7.640;2023-02-08T10:25:33;17.20;61.90
11836;DHT22;5977;51.972;7.640;2023-02-08T10:31:17;17.20;62.00
11836;DHT22;5977;51.972;7.640;2023-02-08T10:33:54;17.10;62.10
11836;DHT22;5977;51.972;7.640;2023-02-08T10:36:31;17.20;62.00
11836;DHT22;5977;51.972;7.640;2023-02-08T10:39:02;17.20;61.90
11836;DHT22;5977;51.972;7.640;2023-02-08T10:41:35;17.40;61.70
11836;DHT22;5977;51.972;7.640;2023-02-08T10:44:11;17.50;61.30
11836;DHT22;5977;51.972;7.640;2023-02-08T10:46:46;17.70;61.00
11836;DHT22;5977;51.972;7.640;2023-02-08T10:49:17;17.80;61.00
11836;DHT22;5977;51.972;7.640;2023-02-08T10:51:49;17.90;60.90
11836;DHT22;5977;51.972;7.640;2023-02-08T10:54:17;18.00;60.70
11836;DHT22;5977;51.972;7.640;2023-02-08T10:56:47;18.10;60.60
11836;DHT22;5977;51.972;7.640;2023-02-08T10:59:20;18.20;60.10
11836;DHT22;5977;51.972;7.640;2023-02-08T11:01:49;18.40;60.00
11836;DHT22;5977;51.972;7.640;2023-02-08T11:04:17;18.50;59.90
11836;DHT22;5977;51.972;7.640;2023-02-08T11:06:47;18.50;59.60
11836;DHT22;5977;51.972;7.640;2023-02-08T11:09:25;18.60;59.50
11836;DHT22;5977;51.972;7.640;2023-02-08T11:11:53;18.60;59.30
11836;DHT22;5977;51.972;7.640;2023-02-08T11:14:26;18.60;59.40
11836;DHT22;5977;51.972;7.640;2023-02-08T11:17:24;18.60;59.20
11836;DHT22;5977;51.972;7.640;2023-02-08T11:19:52;18.50;59.10
11836;DHT22;5977;51.972;7.640;2023-02-08T11:22:23;18.50;59.40
11836;DHT22;5977;51.972;7.640;2023-02-08T11:24:58;18.40;59.30
11836;DHT22;5977;51.972;7.640;2023-02-08T11:27:31;18.40;59.30
11836;DHT22;5977;51.972;7.640;2023-02-08T11:30:19;18.30;59.50
11836;DHT22;5977;51.972;7.640;2023-02-08T11:33:15;18.10;59.60
11836;DHT22;5977;51.972;7.640;2023-02-08T11:38:40;17.80;60.10
11836;DHT22;5977;51.972;7.640;2023-02-08T11:41:18;17.70;60.70
11836;DHT22;5977;51.972;7.640;2023-02-08T11:43:57;17.70;60.70
11836;DHT22;5977;51.972;7.640;2023-02-08T11:46:27;17.60;60.80
11836;DHT22;5977;51.972;7.640;2023-02-08T11:48:56;17.50;61.20
11836;DHT22;5977;51.972;7.640;2023-02-08T11:51:27;17.40;61.50
11836;DHT22;5977;51.972;7.640;2023-02-08T11:53:57;17.40;61.60
11836;DHT22;5977;51.972;7.640;2023-02-08T11:56:29;17.30;62.00
11836;DHT22;5977;51.972;7.640;2023-02-08T11:59:03;17.30;62.00
11836;DHT22;5977;51.972;7.640;2023-02-08T12:01:33;17.30;62.00
11836;DHT22;5977;51.972;7.640;2023-02-08T12:04:04;17.20;62.30
11836;DHT22;5977;51.972;7.640;2023-02-08T12:12:50;17.00;62.90
11836;DHT22;5977;51.972;7.640;2023-02-08T12:15:27;16.90;63.20
11836;DHT22;5977;51.972;7.640;2023-02-08T12:18:11;16.90;63.40
11836;DHT22;5977;51.972;7.640;2023-02-08T12:20:43;16.90;63.50
11836;DHT22;5977;51.972;7.640;2023-02-08T12:23:37;16.90;63.90
11836;DHT22;5977;51.972;7.640;2023-02-08T12:26:15;16.90;63.50
11836;DHT22;5977;51.972;7.640;2023-02-08T12:29:00;16.80;63.90
11836;DHT22;5977;51.972;7.640;2023-02-08T12:31:43;16.80;63.90
11836;DHT22;5977;51.972;7.640;2023-02-08T12:34:18;16.80;64.00
11836;DHT22;5977;51.972;7.640;2023-02-08T12:37:04;16.80;64.10
11836;DHT22;5977;51.972;7.640;2023-02-08T12:40:01;16.80;64.10
11836;DHT22;5977;51.972;7.640;2023-02-08T12:43:06;16.70;64.20
11836;DHT22;5977;51.972;7.640;2023-02-08T12:45:55;16.80;64.40
11836;DHT22;5977;51.972;7.640;2023-02-08T12:48:44;16.70;64.30
11836;DHT22;5977;51.972;7.640;2023-02-08T12:51:23;16.70;64.40
11836;DHT22;5977;51.972;7.640;2023-02-08T12:53:56;16.70;64.60
11836;DHT22;5977;51.972;7.640;2023-02-08T12:56:35;16.60;64.70
11836;DHT22;5977;51.972;7.640;2023-02-08T12:59:05;16.60;64.80
11836;DHT22;5977;51.972;7.640;2023-02-08T13:01:43;16.60;64.90
11836;DHT22;5977;51.972;7.640;2023-02-08T13:04:13;16.60;64.90
11836;DHT22;5977;51.972;7.640;2023-02-08T13:06:45;16.50;64.90
11836;DHT22;5977;51.972;7.640;2023-02-08T13:09:19;16.50;65.00
11836;DHT22;5977;51.972;7.640;2023-02-08T13:11:52;16.60;65.10
11836;DHT22;5977;51.972;7.640;2023-02-08T13:14:27;16.50;65.10
11836;DHT22;5977;51.972;7.640;2023-02-08T13:17:02;16.50;65.00
11836;DHT22;5977;51.972;7.640;2023-02-08T13:19:36;16.50;65.00
11836;DHT22;5977;51.972;7.640;2023-02-08T13:22:17;16.50;65.00
11836;DHT22;5977;51.972;7.640;2023-02-08T13:24:46;16.50;65.30
11836;DHT22;5977;51.972;7.640;2023-02-08T13:27:27;16.50;65.30
11836;DHT22;5977;51.972;7.640;2023-02-08T13:29:54;16.50;65.40
11836;DHT22;5977;51.972;7.640;2023-02-08T13:32:26;16.40;65.40
11836;DHT22;5977;51.972;7.640;2023-02-08T13:34:59;16.50;65.30
11836;DHT22;5977;51.972;7.640;2023-02-08T13:37:29;16.40;65.30
11836;DHT22;5977;51.972;7.640;2023-02-08T13:40:01;16.40;65.40
11836;DHT22;5977;51.972;7.640;2023-02-08T13:42:33;16.40;65.30
11836;DHT22;5977;51.972;7.640;2023-02-08T13:45:03;16.40;65.30
11836;DHT22;5977;51.972;7.640;2023-02-08T13:47:36;16.40;65.40
11836;DHT22;5977;51.972;7.640;2023-02-08T13:50:36;16.40;65.40
11836;DHT22;5977;51.972;7.640;2023-02-08T13:53:05;16.40;65.20
11836;DHT22;5977;51.972;7.640;2023-02-08T13:55:55;16.40;65.50
11836;DHT22;5977;51.972;7.640;2023-02-08T14:01:32;16.40;65.10
11836;DHT22;5977;51.972;7.640;2023-02-08T14:04:30;16.40;65.50
11836;DHT22;5977;51.972;7.640;2023-02-08T14:07:03;16.40;65.10
11836;DHT22;5977;51.972;7.640;2023-02-08T14:09:47;16.40;65.40
11836;DHT22;5977;51.972;7.640;2023-02-08T14:12:21;16.40;65.40
11836;DHT22;5977;51.972;7.640;2023-02-08T14:17:49;16.40;65.30
11836;DHT22;5977;51.972;7.640;2023-02-08T14:20:20;16.40;65.70
11836;DHT22;5977;51.972;7.640;2023-02-08T14:22:53;16.40;65.60
11836;DHT22;5977;51.972;7.640;2023-02-08T14:25:24;16.40;65.70
11836;DHT22;5977;51.972;7.640;2023-02-08T14:27:54;16.40;65.90
11836;DHT22;5977;51.972;7.640;2023-02-08T14:30:26;16.40;65.70
11836;DHT22;5977;51.972;7.640;2023-02-08T14:33:10;16.30;65.50
11836;DHT22;5977;51.972;7.640;2023-02-08T14:35:41;16.30;65.30
11836;DHT22;5977;51.972;7.640;2023-02-08T14:38:49;16.20;65.50
11836;DHT22;5977;51.972;7.640;2023-02-08T14:41:40;16.30;65.30
11836;DHT22;5977;51.972;7.640;2023-02-08T14:47:51;16.20;65.30
11836;DHT22;5977;51.972;7.640;2023-02-08T14:50:24;16.20;65.30
11836;DHT22;5977;51.972;7.640;2023-02-08T14:53:00;16.20;65.60
11836;DHT22;5977;51.972;7.640;2023-02-08T14:55:31;16.20;65.50
11836;DHT22;5977;51.972;7.640;2023-02-08T14:57:59;16.20;65.60
11836;DHT22;5977;51.972;7.640;2023-02-08T15:00:32;16.10;65.70
11836;DHT22;5977;51.972;7.640;2023-02-08T15:03:03;16.20;65.70
11836;DHT22;5977;51.972;7.640;2023-02-08T15:05:36;16.10;65.60
11836;DHT22;5977;51.972;7.640;2023-02-08T15:08:07;16.10;65.60
11836;DHT22;5977;51.972;7.640;2023-02-08T15:10:40;16.10;65.70
11836;DHT22;5977;51.972;7.640;2023-02-08T15:13:17;16.10;65.50
11836;DHT22;5977;51.972;7.640;2023-02-08T15:15:49;16.10;65.50
11836;DHT22;5977;51.972;7.640;2023-02-08T15:18:20;16.10;65.50
11836;DHT22;5977;51.972;7.640;2023-02-08T15:21:01;16.10;65.70
11836;DHT22;5977;51.972;7.640;2023-02-08T15:23:31;16.10;65.50
11836;DHT22;5977;51.972;7.640;2023-02-08T15:26:00;16.10;65.60
11836;DHT22;5977;51.972;7.640;2023-02-08T15:28:30;16.10;65.70
11836;DHT22;5977;51.972;7.640;2023-02-08T15:30:59;16.10;65.70
11836;DHT22;5977;51.972;7.640;2023-02-08T15:33:29;16.10;65.80
11836;DHT22;5977;51.972;7.640;2023-02-08T15:35:59;16.10;65.90
11836;DHT22;5977;51.972;7.640;2023-02-08T15:38:34;16.00;65.90
11836;DHT22;5977;51.972;7.640;2023-02-08T15:41:06;16.00;66.00
11836;DHT22;5977;51.972;7.640;2023-02-08T15:43:35;16.00;66.20
11836;DHT22;5977;51.972;7.640;2023-02-08T15:46:05;16.00;66.20
11836;DHT22;5977;51.972;7.640;2023-02-08T15:48:34;16.10;66.30
11836;DHT22;5977;51.972;7.640;2023-02-08T15:51:05;16.00;66.40
11836;DHT22;5977;51.972;7.640;2023-02-08T15:53:35;16.00;66.50
11836;DHT22;5977;51.972;7.640;2023-02-08T15:56:04;16.10;66.60
11836;DHT22;5977;51.972;7.640;2023-02-08T15:58:34;16.00;66.60
11836;DHT22;5977;51.972;7.640;2023-02-08T16:01:06;16.00;66.60
11836;DHT22;5977;51.972;7.640;2023-02-08T16:03:35;16.00;66.60
11836;DHT22;5977;51.972;7.640;2023-02-08T16:06:05;16.00;66.70
11836;DHT22;5977;51.972;7.640;2023-02-08T16:08:39;16.00;66.60
11836;DHT22;5977;51.972;7.640;2023-02-08T16:11:10;16.00;66.70
11836;DHT22;5977;51.972;7.640;2023-02-08T16:13:40;15.90;66.80
11836;DHT22;5977;51.972;7.640;2023-02-08T16:16:17;16.00;66.80
11836;DHT22;5977;51.972;7.640;2023-02-08T16:18:47;15.90;66.60
11836;DHT22;5977;51.972;7.640;2023-02-08T16:21:35;15.90;66.70
11836;DHT22;5977;51.972;7.640;2023-02-08T16:24:19;15.90;66.50
11836;DHT22;5977;51.972;7.640;2023-02-08T16:26:53;16.00;66.70
11836;DHT22;5977;51.972;7.640;2023-02-08T16:29:24;15.90;66.80
11836;DHT22;5977;51.972;7.640;2023-02-08T16:31:59;15.90;66.90
11836;DHT22;5977;51.972;7.640;2023-02-08T16:34:31;15.90;66.90
11836;DHT22;5977;51.972;7.640;2023-02-08T16:37:00;15.90;67.10
11836;DHT22;5977;51.972;7.640;2023-02-08T16:39:44;15.90;67.30
11836;DHT22;5977;51.972;7.640;2023-02-08T16:42:31;15.90;67.10